createdAt,value
2022-12-14T00:01:48.982Z,10.23
2022-12-14T00:04:17.407Z,9.88
2022-12-14T00:06:45.212Z,13.20
2022-12-14T00:09:12.471Z,10.27
2022-12-14T00:11:40.187Z,9.32
2022-12-14T00:14:07.803Z,8.35
2022-12-14T00:16:36.252Z,10.45
2022-12-14T00:19:05.588Z,10.80
2022-12-14T00:21:34.023Z,7.82
2022-12-14T00:24:01.469Z,11.23
2022-12-14T00:26:31.850Z,14.98
2022-12-14T00:29:01.363Z,12.85
2022-12-14T00:31:31.208Z,9.30
2022-12-14T00:33:59.084Z,11.32
2022-12-14T00:36:26.747Z,9.43
2022-12-14T00:38:54.047Z,12.35
2022-12-14T00:41:21.739Z,11.60
2022-12-14T00:43:49.618Z,9.95
2022-12-14T00:46:18.215Z,10.02
2022-12-14T00:48:45.826Z,9.45
2022-12-14T00:51:15.190Z,10.77
2022-12-14T00:53:44.818Z,9.80
2022-12-14T00:56:12.460Z,12.27
2022-12-14T00:58:39.736Z,11.55
2022-12-14T01:01:12.551Z,9.48
2022-12-14T01:03:39.998Z,11.77
2022-12-14T01:06:17.247Z,9.68
2022-12-14T01:08:45.066Z,9.52
2022-12-14T01:11:13.588Z,14.10
2022-12-14T01:13:41.974Z,11.82
2022-12-14T01:16:12.591Z,7.78
2022-12-14T01:18:42.313Z,10.60
2022-12-14T01:21:14.630Z,10.27
2022-12-14T01:26:11.166Z,10.38
2022-12-14T01:28:38.628Z,13.68
2022-12-14T01:31:08.518Z,9.88
2022-12-14T01:33:36.220Z,8.85
2022-12-14T01:36:10.053Z,9.77
2022-12-14T01:38:37.470Z,10.23
2022-12-14T01:41:06.382Z,9.23
2022-12-14T01:43:53.037Z,9.57
2022-12-14T01:46:40.809Z,10.70
2022-12-14T01:49:16.387Z,10.73
2022-12-14T01:51:53.836Z,10.40
2022-12-14T01:54:21.394Z,9.73
2022-12-14T01:56:49.089Z,10.10
2022-12-14T01:59:23.986Z,9.05
2022-12-14T02:01:53.850Z,8.73
2022-12-14T02:04:21.798Z,9.18
2022-12-14T02:06:53.230Z,14.73
2022-12-14T02:09:28.362Z,9.00
2022-12-14T02:11:55.811Z,10.75
2022-12-14T02:14:23.685Z,11.13
2022-12-14T02:16:53.705Z,9.02
2022-12-14T02:19:21.138Z,12.65
2022-12-14T02:21:51.735Z,11.00
2022-12-14T02:24:49.534Z,8.82
2022-12-14T02:27:47.418Z,9.00
2022-12-14T02:30:21.807Z,8.93
2022-12-14T02:33:13.703Z,9.50
2022-12-14T02:35:51.247Z,12.43
2022-12-14T02:38:47.250Z,10.35
2022-12-14T02:41:38.327Z,12.77
2022-12-14T02:44:24.090Z,9.43
2022-12-14T02:47:11.547Z,10.98
2022-12-14T02:49:57.419Z,11.48
2022-12-14T02:52:41.066Z,20.55
2022-12-14T02:55:27.957Z,11.63
2022-12-14T02:57:58.230Z,15.85
2022-12-14T03:00:29.320Z,13.32
2022-12-14T03:02:57.794Z,13.40
2022-12-14T03:05:25.847Z,15.15
2022-12-14T03:07:59.650Z,12.77
2022-12-14T03:10:35.357Z,11.48
2022-12-14T03:13:18.624Z,13.60
2022-12-14T03:15:53.820Z,12.88
2022-12-14T03:18:25.017Z,9.77
2022-12-14T03:20:56.164Z,14.63
2022-12-14T03:23:29.456Z,11.18
2022-12-14T03:26:04.993Z,11.45
2022-12-14T03:28:54.773Z,12.18
2022-12-14T03:31:31.412Z,14.38
2022-12-14T03:34:02.916Z,11.05
2022-12-14T03:36:33.023Z,13.55
2022-12-14T03:39:04.779Z,12.35
2022-12-14T03:41:58.644Z,12.85
2022-12-14T03:44:49.246Z,11.82
2022-12-14T03:47:23.571Z,12.33
2022-12-14T03:49:53.557Z,10.05
2022-12-14T03:52:27.007Z,16.33
2022-12-14T03:55:13.403Z,11.13
2022-12-14T03:58:13.367Z,13.57
2022-12-14T04:00:49.078Z,12.27
2022-12-14T04:03:23.524Z,14.50
2022-12-14T04:06:01.461Z,11.32
2022-12-14T04:08:44.730Z,13.15
2022-12-14T04:11:33.072Z,16.58
2022-12-14T04:14:27.940Z,12.88
2022-12-14T04:17:16.337Z,10.57
2022-12-14T04:19:48.928Z,11.48
2022-12-14T04:22:26.293Z,14.23
2022-12-14T04:25:41.958Z,13.13
2022-12-14T04:28:44.593Z,13.48
2022-12-14T04:31:17.139Z,12.20
2022-12-14T04:33:52.835Z,11.02
2022-12-14T04:36:39.081Z,15.43
2022-12-14T04:39:11.754Z,12.57
2022-12-14T04:41:45.355Z,11.05
2022-12-14T04:44:20.613Z,15.77
2022-12-14T04:46:48.941Z,13.48
2022-12-14T04:49:21.977Z,15.93
2022-12-14T04:52:06.569Z,11.52
2022-12-14T04:54:45.829Z,11.48
2022-12-14T04:57:21.454Z,14.57
2022-12-14T04:59:49.441Z,13.30
2022-12-14T05:02:45.816Z,15.88
2022-12-14T05:05:26.398Z,16.02
2022-12-14T05:08:05.004Z,17.15
2022-12-14T05:10:53.563Z,13.50
2022-12-14T05:13:30.685Z,13.48
2022-12-14T05:15:59.438Z,13.07
2022-12-14T05:18:27.090Z,12.27
2022-12-14T05:20:54.398Z,12.80
2022-12-14T05:23:22.075Z,11.32
2022-12-14T05:25:49.363Z,11.32
2022-12-14T05:28:16.993Z,12.35
2022-12-14T05:30:48.820Z,12.23
2022-12-14T05:33:19.734Z,12.85
2022-12-14T05:35:47.113Z,12.55
2022-12-14T05:38:14.989Z,13.95
2022-12-14T05:40:42.286Z,11.32
2022-12-14T05:43:12.361Z,13.32
2022-12-14T05:45:39.695Z,9.23
2022-12-14T05:48:07.377Z,12.80
2022-12-14T05:50:34.696Z,13.70
2022-12-14T05:53:02.509Z,15.15
2022-12-14T05:55:29.862Z,11.73
2022-12-14T05:57:57.326Z,13.27
2022-12-14T06:00:24.579Z,11.50
2022-12-14T06:02:52.232Z,11.40
2022-12-14T06:05:19.547Z,11.13
2022-12-14T06:07:47.045Z,9.70
2022-12-14T06:10:14.520Z,13.07
2022-12-14T06:12:42.033Z,15.07
2022-12-14T06:15:09.697Z,13.90
2022-12-14T06:17:43.180Z,13.45
2022-12-14T06:20:11.461Z,13.60
2022-12-14T06:22:42.846Z,13.38
2022-12-14T06:25:14.580Z,12.27
2022-12-14T06:27:42.134Z,11.00
2022-12-14T06:30:09.999Z,15.50
2022-12-14T06:32:37.609Z,14.48
2022-12-14T06:35:05.331Z,14.05
2022-12-14T06:37:32.944Z,15.20
2022-12-14T06:40:00.132Z,16.27
2022-12-14T06:42:27.603Z,11.68
2022-12-14T06:44:54.843Z,14.75
2022-12-14T06:47:22.325Z,15.57
2022-12-14T06:49:50.716Z,12.80
2022-12-14T06:52:20.817Z,11.73
2022-12-14T06:54:52.282Z,14.77
2022-12-14T06:57:19.806Z,14.82
2022-12-14T06:59:46.995Z,15.73
2022-12-14T07:02:14.638Z,15.13
2022-12-14T07:04:42.178Z,27.52
2022-12-14T07:07:10.643Z,17.85
2022-12-14T07:09:38.604Z,14.70
2022-12-14T07:12:06.429Z,15.88
2022-12-14T07:14:33.748Z,14.57
2022-12-14T07:17:01.335Z,18.92
2022-12-14T07:19:28.537Z,18.08
2022-12-14T07:21:56.024Z,21.42
2022-12-14T07:24:23.245Z,20.90
2022-12-14T07:26:50.743Z,20.65
2022-12-14T07:29:18.118Z,17.35
2022-12-14T07:31:49.639Z,20.00
2022-12-14T07:34:17.234Z,15.43
2022-12-14T07:36:44.786Z,18.95
2022-12-14T07:39:15.818Z,21.25
2022-12-14T07:41:44.885Z,19.67
2022-12-14T07:44:12.284Z,17.52
2022-12-14T07:46:41.310Z,20.52
2022-12-14T07:49:09.363Z,21.02
2022-12-14T07:51:41.248Z,16.92
2022-12-14T07:54:08.837Z,20.00
2022-12-14T07:56:39.957Z,22.63
2022-12-14T07:59:10.971Z,23.88
2022-12-14T08:01:39.059Z,23.75
2022-12-14T08:04:15.635Z,21.90
2022-12-14T08:06:43.455Z,24.08
2022-12-14T08:09:11.968Z,24.20
2022-12-14T08:11:40.315Z,19.13
2022-12-14T08:14:12.395Z,26.05
2022-12-14T08:16:39.946Z,28.63
2022-12-14T08:19:07.317Z,26.38
2022-12-14T08:21:34.938Z,22.45
2022-12-14T08:24:02.316Z,23.25
2022-12-14T08:26:35.250Z,23.70
2022-12-14T08:29:04.216Z,25.67
2022-12-14T08:31:32.778Z,19.17
2022-12-14T08:34:01.133Z,20.30
2022-12-14T08:36:34.381Z,20.75
2022-12-14T08:39:04.639Z,17.23
2022-12-14T08:41:32.608Z,21.60
2022-12-14T08:44:01.437Z,16.48
2022-12-14T08:46:31.161Z,22.27
2022-12-14T08:48:59.075Z,17.83
2022-12-14T08:51:28.188Z,19.67
2022-12-14T08:53:56.618Z,24.75
2022-12-14T08:56:27.747Z,18.58
2022-12-14T08:58:56.465Z,19.98
2022-12-14T09:01:32.284Z,20.15
2022-12-14T09:04:06.797Z,19.30
2022-12-14T09:06:37.612Z,19.73
2022-12-14T09:09:15.490Z,21.30
2022-12-14T09:11:44.761Z,18.98
2022-12-14T09:14:12.470Z,22.40
2022-12-14T09:16:40.393Z,23.30
2022-12-14T09:19:07.864Z,23.25
2022-12-14T09:21:35.423Z,21.42
2022-12-14T09:24:02.872Z,26.00
2022-12-14T09:26:30.633Z,19.33
2022-12-14T09:28:58.307Z,25.58
2022-12-14T09:31:40.006Z,18.65
2022-12-14T09:34:08.052Z,22.65
2022-12-14T09:36:36.231Z,24.27
2022-12-14T09:39:04.307Z,24.77
2022-12-14T09:41:35.098Z,27.10
2022-12-14T09:44:26.987Z,28.58
2022-12-14T09:47:02.677Z,27.60
2022-12-14T09:49:38.778Z,28.35
2022-12-14T09:52:10.656Z,35.55
2022-12-14T09:54:39.629Z,34.95
2022-12-14T09:57:14.534Z,32.40
2022-12-14T09:59:42.164Z,33.15
2022-12-14T10:02:34.657Z,32.58
2022-12-14T10:05:20.514Z,40.35
2022-12-14T10:08:12.163Z,34.72
2022-12-14T10:10:52.013Z,38.83
2022-12-14T10:13:46.679Z,35.60
2022-12-14T10:16:24.375Z,34.78
2022-12-14T10:19:01.247Z,36.53
2022-12-14T10:21:42.709Z,38.13
2022-12-14T10:24:15.905Z,34.30
2022-12-14T10:26:51.541Z,34.55
2022-12-14T10:29:31.490Z,38.83
2022-12-14T10:32:06.893Z,37.30
2022-12-14T10:34:35.027Z,42.45
2022-12-14T10:37:12.707Z,43.10
2022-12-14T10:39:49.319Z,37.38
2022-12-14T10:42:21.896Z,36.63
2022-12-14T10:45:39.723Z,36.95
2022-12-14T10:48:16.385Z,34.47
2022-12-14T10:51:14.371Z,38.50
2022-12-14T10:54:03.568Z,34.75
2022-12-14T10:56:33.969Z,30.23
2022-12-14T10:59:26.038Z,38.22
2022-12-14T11:02:07.608Z,30.70
2022-12-14T11:04:49.583Z,40.13
2022-12-14T11:07:20.360Z,40.15
2022-12-14T11:09:48.316Z,25.37
2022-12-14T11:12:27.178Z,36.85
2022-12-14T11:14:59.798Z,45.97
2022-12-14T11:17:31.632Z,35.85
2022-12-14T11:20:06.590Z,33.03
2022-12-14T11:22:49.331Z,41.13
2022-12-14T11:25:29.245Z,43.42
2022-12-14T11:28:02.174Z,44.85
2022-12-14T11:30:29.925Z,39.63
2022-12-14T11:32:57.558Z,40.85
2022-12-14T11:35:25.147Z,39.03
2022-12-14T11:37:59.182Z,31.65
2022-12-14T11:40:27.861Z,40.38
2022-12-14T11:43:01.888Z,55.45
2022-12-14T11:45:33.520Z,37.92
2022-12-14T11:48:17.282Z,29.10
2022-12-14T11:50:46.848Z,41.95
2022-12-14T11:53:16.888Z,41.10
2022-12-14T11:55:50.654Z,36.92
2022-12-14T11:58:22.483Z,33.45
2022-12-14T12:00:55.607Z,40.15
2022-12-14T12:03:38.087Z,39.95
2022-12-14T12:06:09.171Z,37.40
2022-12-14T12:08:40.191Z,38.88
2022-12-14T12:11:22.314Z,35.47
2022-12-14T12:14:07.489Z,37.55
2022-12-14T12:16:35.688Z,39.03
2022-12-14T12:19:26.375Z,35.30
2022-12-14T12:21:56.488Z,33.95
2022-12-14T12:24:41.601Z,33.75
2022-12-14T12:27:18.373Z,37.30
2022-12-14T12:29:55.413Z,38.80
2022-12-14T12:32:25.886Z,37.70
2022-12-14T12:35:18.805Z,35.90
2022-12-14T12:37:48.888Z,34.83
2022-12-14T12:40:38.006Z,39.10
2022-12-14T12:43:18.532Z,34.67
2022-12-14T12:45:59.907Z,31.48
2022-12-14T12:48:27.846Z,36.30
2022-12-14T12:51:01.222Z,33.90
2022-12-14T12:53:59.264Z,39.08
2022-12-14T12:56:48.113Z,34.40
2022-12-14T12:59:36.516Z,33.78
2022-12-14T13:02:31.316Z,37.05
2022-12-14T13:05:22.366Z,35.08
2022-12-14T13:08:07.670Z,40.30
2022-12-14T13:10:50.456Z,37.13
2022-12-14T13:13:35.589Z,33.83
2022-12-14T13:16:13.572Z,31.20
2022-12-14T13:21:44.623Z,33.65
2022-12-14T13:24:20.094Z,34.00
2022-12-14T13:26:59.007Z,38.13
2022-12-14T13:29:47.899Z,36.65
2022-12-14T13:32:40.419Z,34.13
2022-12-14T13:35:34.945Z,40.40
2022-12-14T13:38:39.717Z,35.35
2022-12-14T13:41:19.374Z,37.63
2022-12-14T13:44:11.794Z,40.55
2022-12-14T13:46:39.379Z,36.75
2022-12-14T13:49:16.327Z,39.88
2022-12-14T13:51:51.852Z,36.85
2022-12-14T13:54:40.190Z,40.28
2022-12-14T13:57:11.587Z,38.40
2022-12-14T13:59:44.304Z,41.17
2022-12-14T14:02:30.391Z,44.13
2022-12-14T14:05:18.788Z,43.03
2022-12-14T14:07:58.177Z,38.78
2022-12-14T14:10:37.617Z,41.78
2022-12-14T14:13:29.385Z,51.03
2022-12-14T14:19:05.786Z,47.35
2022-12-14T14:21:58.841Z,37.55
2022-12-14T14:24:29.096Z,40.30
2022-12-14T14:27:01.391Z,41.60
2022-12-14T14:29:31.018Z,42.45
2022-12-14T14:32:33.149Z,43.13
2022-12-14T14:35:03.574Z,40.53
2022-12-14T14:37:33.582Z,44.58
2022-12-14T14:40:23.803Z,45.30
2022-12-14T14:43:09.011Z,49.53
2022-12-14T14:45:38.984Z,41.15
2022-12-14T14:48:21.007Z,45.92
2022-12-14T14:50:56.700Z,49.85
2022-12-14T14:53:33.051Z,47.03
2022-12-14T14:56:05.026Z,44.47
2022-12-14T14:58:35.190Z,47.67
2022-12-14T15:01:28.379Z,38.85
2022-12-14T15:04:02.279Z,42.85
2022-12-14T15:06:42.093Z,39.90
2022-12-14T15:09:09.631Z,40.65
2022-12-14T15:11:45.845Z,43.28
2022-12-14T15:14:46.616Z,37.72
2022-12-14T15:17:23.254Z,48.33
2022-12-14T15:19:52.080Z,47.63
2022-12-14T15:22:22.799Z,46.35
2022-12-14T15:24:53.911Z,37.07
2022-12-14T15:27:27.453Z,36.45
2022-12-14T15:30:03.282Z,47.55
2022-12-14T15:32:31.832Z,47.33
2022-12-14T15:35:05.870Z,47.60
2022-12-14T15:37:52.454Z,43.67
2022-12-14T15:40:26.894Z,49.67
2022-12-14T15:42:57.053Z,52.70
2022-12-14T15:45:30.692Z,54.08
2022-12-14T15:48:13.642Z,50.80
2022-12-14T15:50:46.354Z,51.25
2022-12-14T15:53:18.995Z,48.70
2022-12-14T15:55:56.355Z,50.92
2022-12-14T15:58:32.694Z,46.93
2022-12-14T16:01:27.229Z,51.00
2022-12-14T16:03:59.294Z,52.70
2022-12-14T16:06:28.926Z,48.20
2022-12-14T16:09:16.984Z,52.30
2022-12-14T16:11:48.542Z,48.88
2022-12-14T16:14:22.446Z,43.17
2022-12-14T16:16:50.862Z,54.00
2022-12-14T16:19:28.876Z,51.30
2022-12-14T16:22:09.600Z,47.72
2022-12-14T16:24:38.477Z,54.30
2022-12-14T16:27:18.725Z,57.53
2022-12-14T16:30:04.745Z,52.22
2022-12-14T16:32:33.089Z,53.83
2022-12-14T16:35:01.744Z,57.15
2022-12-14T16:37:33.340Z,53.40
2022-12-14T16:42:32.642Z,64.80
2022-12-14T16:45:00.414Z,62.13
2022-12-14T16:47:48.920Z,52.78
2022-12-14T16:53:31.357Z,62.40
2022-12-14T16:56:07.495Z,59.75
2022-12-14T16:58:36.304Z,59.00
2022-12-14T17:01:06.636Z,61.10
2022-12-14T17:03:36.740Z,66.75
2022-12-14T17:06:07.137Z,67.82
2022-12-14T17:08:35.358Z,73.32
2022-12-14T17:11:03.339Z,71.00
2022-12-14T17:13:31.482Z,69.88
2022-12-14T17:16:02.048Z,74.10
2022-12-14T17:18:41.446Z,83.93
2022-12-14T17:21:18.420Z,76.47
2022-12-14T17:23:47.235Z,82.85
2022-12-14T17:26:21.779Z,82.63
2022-12-14T17:28:50.078Z,76.07
2022-12-14T17:31:21.011Z,80.45
2022-12-14T17:33:50.833Z,85.57
2022-12-14T17:36:18.658Z,84.38
2022-12-14T17:38:46.874Z,91.15
2022-12-14T17:41:25.583Z,89.50
2022-12-14T17:43:57.713Z,83.25
2022-12-14T17:48:54.216Z,104.15
2022-12-14T17:51:25.520Z,102.82
2022-12-14T17:53:58.353Z,96.47
2022-12-14T17:56:26.677Z,105.13
2022-12-14T17:58:54.346Z,103.38
2022-12-14T18:01:23.802Z,104.20
2022-12-14T18:03:52.016Z,106.15
2022-12-14T18:06:21.731Z,87.60
2022-12-14T18:08:50.091Z,99.80
2022-12-14T18:11:21.796Z,112.07
2022-12-14T18:13:50.213Z,100.78
2022-12-14T18:16:20.518Z,109.82
2022-12-14T18:18:49.902Z,96.70
2022-12-14T18:21:25.491Z,105.55
2022-12-14T18:23:53.765Z,93.32
2022-12-14T18:26:22.362Z,101.95
2022-12-14T18:28:53.660Z,107.55
2022-12-14T18:31:33.314Z,112.65
2022-12-14T18:34:01.169Z,109.03
2022-12-14T18:36:28.980Z,112.82
2022-12-14T18:38:57.100Z,116.45
2022-12-14T18:41:27.726Z,105.65
2022-12-14T18:43:56.086Z,77.05
2022-12-14T18:46:24.732Z,115.50
2022-12-14T18:48:53.351Z,120.10
2022-12-14T18:51:27.015Z,113.18
2022-12-14T18:53:57.532Z,121.07
2022-12-14T18:56:25.679Z,113.10
2022-12-14T18:58:53.469Z,120.88
2022-12-14T19:01:23.416Z,119.28
2022-12-14T19:03:51.687Z,116.70
2022-12-14T19:09:13.126Z,122.55
2022-12-14T19:11:44.807Z,121.85
2022-12-14T19:14:13.162Z,120.47
2022-12-14T19:16:40.941Z,118.10
2022-12-14T19:19:08.669Z,116.47
2022-12-14T19:21:36.253Z,132.85
2022-12-14T19:24:04.234Z,115.07
2022-12-14T19:26:31.580Z,113.13
2022-12-14T19:28:59.290Z,122.43
2022-12-14T19:31:26.619Z,119.50
2022-12-14T19:33:54.610Z,118.05
2022-12-14T19:36:22.018Z,109.38
2022-12-14T19:38:49.909Z,120.18
2022-12-14T19:41:20.532Z,123.95
2022-12-14T19:43:48.773Z,116.32
2022-12-14T19:46:18.078Z,116.35
2022-12-14T19:48:46.258Z,108.35
2022-12-14T19:51:14.485Z,109.90
2022-12-14T19:53:44.084Z,115.28
2022-12-14T19:56:14.795Z,121.45
2022-12-14T19:58:42.625Z,110.00
2022-12-14T20:01:15.715Z,115.65
2022-12-14T20:03:43.963Z,113.40
2022-12-14T20:06:11.426Z,127.57
2022-12-14T20:08:39.066Z,131.23
2022-12-14T20:11:08.427Z,127.80
2022-12-14T20:13:36.339Z,129.00
2022-12-14T20:16:04.166Z,125.50
2022-12-14T20:18:32.240Z,125.43
2022-12-14T20:21:04.744Z,121.53
2022-12-14T20:23:35.355Z,124.13
2022-12-14T20:26:04.428Z,133.10
2022-12-14T20:28:32.023Z,134.93
2022-12-14T20:31:00.643Z,132.25
2022-12-14T20:33:30.782Z,131.43
2022-12-14T20:35:59.365Z,129.60
2022-12-14T20:38:27.432Z,129.95
2022-12-14T20:40:54.964Z,127.55
2022-12-14T20:43:22.539Z,121.90
2022-12-14T20:45:49.760Z,146.68
2022-12-14T20:48:17.429Z,131.57
2022-12-14T20:50:49.472Z,124.90
2022-12-14T20:53:19.581Z,129.57
2022-12-14T20:55:46.842Z,137.68
2022-12-14T20:58:14.517Z,134.32
2022-12-14T21:00:41.983Z,123.07
2022-12-14T21:03:09.694Z,119.65
2022-12-14T21:05:43.970Z,117.75
2022-12-14T21:08:11.538Z,120.55
2022-12-14T21:10:38.753Z,104.05
2022-12-14T21:13:08.001Z,116.82
2022-12-14T21:15:35.943Z,122.28
2022-12-14T21:18:03.762Z,112.10
2022-12-14T21:20:31.129Z,109.68
2022-12-14T21:22:58.795Z,111.47
2022-12-14T21:25:26.068Z,109.82
2022-12-14T21:27:53.726Z,100.35
2022-12-14T21:30:21.129Z,89.55
2022-12-14T21:32:49.373Z,102.22
2022-12-14T21:35:18.544Z,102.05
2022-12-14T21:37:46.109Z,97.40
2022-12-14T21:40:33.324Z,103.60
2022-12-14T21:43:00.968Z,98.88
2022-12-14T21:45:28.267Z,98.55
2022-12-14T21:47:56.021Z,93.00
2022-12-14T21:50:23.254Z,88.50
2022-12-14T21:52:50.857Z,95.68
2022-12-14T21:55:18.157Z,100.60
2022-12-14T21:58:04.205Z,108.03
2022-12-14T22:00:31.500Z,104.22
2022-12-14T22:02:59.286Z,107.20
2022-12-14T22:05:26.650Z,96.82
2022-12-14T22:07:54.235Z,98.57
2022-12-14T22:10:24.797Z,101.65
2022-12-14T22:12:52.929Z,102.75
2022-12-14T22:15:20.313Z,112.35
2022-12-14T22:17:50.485Z,108.43
2022-12-14T22:20:17.691Z,106.80
2022-12-14T22:22:45.301Z,101.32
2022-12-14T22:25:12.548Z,108.68
2022-12-14T22:27:40.101Z,108.35
2022-12-14T22:30:08.689Z,110.38
2022-12-14T22:32:36.231Z,97.22
2022-12-14T22:35:03.780Z,103.93
2022-12-14T22:37:31.373Z,113.50
2022-12-14T22:39:58.595Z,107.78
2022-12-14T22:42:26.113Z,98.97
2022-12-14T22:44:54.645Z,108.82
2022-12-14T22:47:22.173Z,104.90
2022-12-14T22:49:49.394Z,104.95
2022-12-14T22:52:22.897Z,103.18
2022-12-14T22:54:51.963Z,99.90
2022-12-14T22:57:22.554Z,98.47
2022-12-14T23:00:02.434Z,105.85
2022-12-14T23:02:31.091Z,94.38
2022-12-14T23:04:58.562Z,101.20
2022-12-14T23:07:26.155Z,100.35
2022-12-14T23:10:11.806Z,101.20
2022-12-14T23:12:57.970Z,81.80
2022-12-14T23:15:43.589Z,84.10
2022-12-14T23:18:29.725Z,86.53
2022-12-14T23:21:15.764Z,85.85
2022-12-14T23:24:05.445Z,90.90
2022-12-14T23:26:52.021Z,80.88
2022-12-14T23:29:38.185Z,77.13
2022-12-14T23:32:24.048Z,81.18
2022-12-14T23:35:09.976Z,78.65
2022-12-14T23:37:55.962Z,85.13
2022-12-14T23:40:42.607Z,92.95
2022-12-14T23:43:29.748Z,79.32
2022-12-14T23:46:16.680Z,82.38
2022-12-14T23:49:03.127Z,82.75
2022-12-14T23:51:49.287Z,83.68
2022-12-14T23:54:35.637Z,80.25
2022-12-14T23:57:25.853Z,84.32
